sensor_id;sensor_type;location;lat;lon;timestamp;P1;durP1;ratioP1;P2;durP2;ratioP2
35243;SDS011;37916;52.160;21.066;2023-04-06T00:09:25;9.10;;;4.50;;
35243;SDS011;37916;52.160;21.066;2023-04-06T00:19:26;7.12;;;3.66;;
35243;SDS011;37916;52.160;21.066;2023-04-06T00:29:26;7.78;;;3.63;;
35243;SDS011;37916;52.160;21.066;2023-04-06T00:39:27;8.74;;;4.92;;
35243;SDS011;37916;52.160;21.066;2023-04-06T00:49:28;9.48;;;4.40;;
35243;SDS011;37916;52.160;21.066;2023-04-06T00:59:28;12.20;;;6.63;;
35243;SDS011;37916;52.160;21.066;2023-04-06T01:09:32;10.30;;;4.57;;
35243;SDS011;37916;52.160;21.066;2023-04-06T01:19:33;8.93;;;4.18;;
35243;SDS011;37916;52.160;21.066;2023-04-06T01:29:37;7.13;;;3.73;;
35243;SDS011;37916;52.160;21.066;2023-04-06T01:39:47;8.23;;;3.77;;
35243;SDS011;37916;52.160;21.066;2023-04-06T01:49:53;7.53;;;3.50;;
35243;SDS011;37916;52.160;21.066;2023-04-06T01:59:54;6.35;;;3.45;;
35243;SDS011;37916;52.160;21.066;2023-04-06T02:09:55;6.90;;;3.35;;
35243;SDS011;37916;52.160;21.066;2023-04-06T02:19:56;7.50;;;3.90;;
35243;SDS011;37916;52.160;21.066;2023-04-06T02:29:56;7.22;;;3.28;;
35243;SDS011;37916;52.160;21.066;2023-04-06T02:39:57;9.55;;;3.83;;
35243;SDS011;37916;52.160;21.066;2023-04-06T02:49:57;11.13;;;3.83;;
35243;SDS011;37916;52.160;21.066;2023-04-06T02:59:59;7.60;;;3.53;;
35243;SDS011;37916;52.160;21.066;2023-04-06T03:10:00;6.93;;;3.55;;
35243;SDS011;37916;52.160;21.066;2023-04-06T03:20:00;8.82;;;4.65;;
35243;SDS011;37916;52.160;21.066;2023-04-06T03:30:02;10.88;;;4.50;;
35243;SDS011;37916;52.160;21.066;2023-04-06T03:40:03;8.85;;;4.25;;
35243;SDS011;37916;52.160;21.066;2023-04-06T03:50:05;13.52;;;5.18;;
35243;SDS011;37916;52.160;21.066;2023-04-06T04:00:06;11.20;;;4.93;;
35243;SDS011;37916;52.160;21.066;2023-04-06T04:10:07;10.02;;;5.00;;
35243;SDS011;37916;52.160;21.066;2023-04-06T04:20:08;10.07;;;4.93;;
35243;SDS011;37916;52.160;21.066;2023-04-06T04:30:10;10.32;;;4.78;;
35243;SDS011;37916;52.160;21.066;2023-04-06T04:40:11;11.73;;;4.45;;
35243;SDS011;37916;52.160;21.066;2023-04-06T04:50:12;9.82;;;4.60;;
35243;SDS011;37916;52.160;21.066;2023-04-06T05:00:16;10.30;;;3.97;;
35243;SDS011;37916;52.160;21.066;2023-04-06T05:10:20;8.40;;;3.33;;
35243;SDS011;37916;52.160;21.066;2023-04-06T05:20:21;7.43;;;3.35;;
35243;SDS011;37916;52.160;21.066;2023-04-06T05:30:22;8.63;;;4.70;;
35243;SDS011;37916;52.160;21.066;2023-04-06T05:40:22;7.28;;;4.20;;
35243;SDS011;37916;52.160;21.066;2023-04-06T05:50:23;6.35;;;3.35;;
35243;SDS011;37916;52.160;21.066;2023-04-06T06:00:24;8.35;;;3.88;;
35243;SDS011;37916;52.160;21.066;2023-04-06T06:10:27;5.35;;;2.85;;
35243;SDS011;37916;52.160;21.066;2023-04-06T06:20:30;6.97;;;3.38;;
35243;SDS011;37916;52.160;21.066;2023-04-06T06:30:31;6.10;;;3.55;;
35243;SDS011;37916;52.160;21.066;2023-04-06T06:40:32;8.88;;;3.20;;
35243;SDS011;37916;52.160;21.066;2023-04-06T06:50:39;6.95;;;2.55;;
35243;SDS011;37916;52.160;21.066;2023-04-06T07:10:58;5.63;;;2.35;;
35243;SDS011;37916;52.160;21.066;2023-04-06T07:20:58;6.68;;;2.72;;
35243;SDS011;37916;52.160;21.066;2023-04-06T07:31:02;5.22;;;2.38;;
35243;SDS011;37916;52.160;21.066;2023-04-06T07:41:03;6.88;;;3.30;;
35243;SDS011;37916;52.160;21.066;2023-04-06T07:51:04;4.38;;;2.42;;
35243;SDS011;37916;52.160;21.066;2023-04-06T08:01:07;3.75;;;2.13;;
35243;SDS011;37916;52.160;21.066;2023-04-06T08:11:08;10.95;;;2.65;;
35243;SDS011;37916;52.160;21.066;2023-04-06T08:21:09;4.03;;;2.10;;
35243;SDS011;37916;52.160;21.066;2023-04-06T08:31:11;5.32;;;2.58;;
35243;SDS011;37916;52.160;21.066;2023-04-06T08:41:29;5.43;;;2.10;;
35243;SDS011;37916;52.160;21.066;2023-04-06T08:51:30;4.82;;;2.78;;
35243;SDS011;37916;52.160;21.066;2023-04-06T09:01:31;4.95;;;2.10;;
35243;SDS011;37916;52.160;21.066;2023-04-06T09:11:46;5.70;;;2.55;;
35243;SDS011;37916;52.160;21.066;2023-04-06T09:21:48;5.70;;;3.03;;
35243;SDS011;37916;52.160;21.066;2023-04-06T09:31:49;4.30;;;2.20;;
35243;SDS011;37916;52.160;21.066;2023-04-06T09:42:04;6.75;;;3.65;;
35243;SDS011;37916;52.160;21.066;2023-04-06T09:52:05;5.00;;;2.83;;
35243;SDS011;37916;52.160;21.066;2023-04-06T10:02:08;6.55;;;3.50;;
35243;SDS011;37916;52.160;21.066;2023-04-06T10:32:50;6.18;;;3.42;;
35243;SDS011;37916;52.160;21.066;2023-04-06T10:43:06;6.90;;;5.10;;
35243;SDS011;37916;52.160;21.066;2023-04-06T10:53:21;7.70;;;5.13;;
35243;SDS011;37916;52.160;21.066;2023-04-06T11:03:23;7.90;;;5.53;;
35243;SDS011;37916;52.160;21.066;2023-04-06T11:13:36;7.40;;;3.97;;
35243;SDS011;37916;52.160;21.066;2023-04-06T11:23:47;6.35;;;4.68;;
35243;SDS011;37916;52.160;21.066;2023-04-06T11:33:55;7.90;;;5.70;;
35243;SDS011;37916;52.160;21.066;2023-04-06T11:44:00;8.20;;;5.10;;
35243;SDS011;37916;52.160;21.066;2023-04-06T11:54:05;7.88;;;4.88;;
35243;SDS011;37916;52.160;21.066;2023-04-06T12:04:06;7.05;;;4.32;;
35243;SDS011;37916;52.160;21.066;2023-04-06T12:14:06;7.03;;;4.25;;
35243;SDS011;37916;52.160;21.066;2023-04-06T12:24:08;6.60;;;3.70;;
35243;SDS011;37916;52.160;21.066;2023-04-06T12:34:09;6.55;;;3.63;;
35243;SDS011;37916;52.160;21.066;2023-04-06T12:44:10;6.72;;;3.78;;
35243;SDS011;37916;52.160;21.066;2023-04-06T12:54:11;7.22;;;4.88;;
35243;SDS011;37916;52.160;21.066;2023-04-06T13:04:12;8.88;;;4.88;;
35243;SDS011;37916;52.160;21.066;2023-04-06T13:14:15;7.90;;;4.20;;
35243;SDS011;37916;52.160;21.066;2023-04-06T13:24:16;8.73;;;4.47;;
35243;SDS011;37916;52.160;21.066;2023-04-06T13:34:17;6.30;;;3.88;;
35243;SDS011;37916;52.160;21.066;2023-04-06T13:44:17;10.23;;;5.00;;
35243;SDS011;37916;52.160;21.066;2023-04-06T13:54:18;8.24;;;4.34;;
35243;SDS011;37916;52.160;21.066;2023-04-06T14:04:28;11.32;;;4.88;;
35243;SDS011;37916;52.160;21.066;2023-04-06T14:14:29;9.13;;;4.68;;
35243;SDS011;37916;52.160;21.066;2023-04-06T14:24:30;8.77;;;5.45;;
35243;SDS011;37916;52.160;21.066;2023-04-06T14:34:31;7.25;;;4.00;;
35243;SDS011;37916;52.160;21.066;2023-04-06T14:44:32;8.75;;;5.45;;
35243;SDS011;37916;52.160;21.066;2023-04-06T14:54:36;8.13;;;4.95;;
35243;SDS011;37916;52.160;21.066;2023-04-06T15:04:39;9.90;;;4.78;;
35243;SDS011;37916;52.160;21.066;2023-04-06T15:14:49;9.68;;;6.35;;
35243;SDS011;37916;52.160;21.066;2023-04-06T15:24:50;7.95;;;5.38;;
35243;SDS011;37916;52.160;21.066;2023-04-06T15:34:55;9.27;;;5.53;;
35243;SDS011;37916;52.160;21.066;2023-04-06T15:44:59;8.45;;;5.10;;
35243;SDS011;37916;52.160;21.066;2023-04-06T15:55:01;8.23;;;5.13;;
35243;SDS011;37916;52.160;21.066;2023-04-06T16:05:03;11.15;;;5.72;;
35243;SDS011;37916;52.160;21.066;2023-04-06T16:15:04;10.57;;;6.22;;
35243;SDS011;37916;52.160;21.066;2023-04-06T16:25:11;8.83;;;5.03;;
35243;SDS011;37916;52.160;21.066;2023-04-06T16:35:14;11.18;;;6.70;;
35243;SDS011;37916;52.160;21.066;2023-04-06T16:45:15;12.20;;;6.13;;
35243;SDS011;37916;52.160;21.066;2023-04-06T16:55:18;10.80;;;7.60;;
35243;SDS011;37916;52.160;21.066;2023-04-06T17:05:19;11.23;;;6.43;;
35243;SDS011;37916;52.160;21.066;2023-04-06T17:15:23;13.68;;;7.45;;
35243;SDS011;37916;52.160;21.066;2023-04-06T17:25:25;12.85;;;7.07;;
35243;SDS011;37916;52.160;21.066;2023-04-06T17:35:33;14.88;;;6.57;;
35243;SDS011;37916;52.160;21.066;2023-04-06T17:46:31;16.00;;;7.90;;
35243;SDS011;37916;52.160;21.066;2023-04-06T18:27:45;15.83;;;9.10;;
35243;SDS011;37916;52.160;21.066;2023-04-06T18:37:51;14.82;;;8.70;;
35243;SDS011;37916;52.160;21.066;2023-04-06T18:47:53;15.95;;;9.38;;
35243;SDS011;37916;52.160;21.066;2023-04-06T18:58:12;16.27;;;11.48;;
35243;SDS011;37916;52.160;21.066;2023-04-06T19:08:55;13.02;;;7.75;;
35243;SDS011;37916;52.160;21.066;2023-04-06T19:19:43;18.67;;;11.70;;
35243;SDS011;37916;52.160;21.066;2023-04-06T19:40:12;19.38;;;11.95;;
35243;SDS011;37916;52.160;21.066;2023-04-06T19:50:22;16.00;;;11.50;;
35243;SDS011;37916;52.160;21.066;2023-04-06T20:10:33;18.60;;;10.02;;
35243;SDS011;37916;52.160;21.066;2023-04-06T20:20:34;21.33;;;11.18;;
35243;SDS011;37916;52.160;21.066;2023-04-06T20:30:38;18.30;;;10.43;;
35243;SDS011;37916;52.160;21.066;2023-04-06T20:40:54;20.10;;;12.63;;
35243;SDS011;37916;52.160;21.066;2023-04-06T22:08:41;54.90;;;26.60;;
35243;SDS011;37916;52.160;21.066;2023-04-06T22:18:43;47.13;;;24.77;;
35243;SDS011;37916;52.160;21.066;2023-04-06T22:39:54;47.65;;;21.77;;
35243;SDS011;37916;52.160;21.066;2023-04-06T22:50:02;45.55;;;21.75;;
35243;SDS011;37916;52.160;21.066;2023-04-06T23:00:05;46.78;;;19.35;;
35243;SDS011;37916;52.160;21.066;2023-04-06T23:32:08;46.47;;;19.60;;
